Hartford, Michigan
Current Conditions -  °F | °C
As of 1:35 PM on Monday 26 Jan 2015 (Local Time) from KLWA Reporting Station
Clear Clear  
Wind Chill: 25°   Ceiling: Unl
Heat Index: 25°   Visibility: 10mi
Dew Point:   Wind: 3mph
Humidity: 46%   Direction: 190°S
Pressure: 29.91"   Gusts: NA
Location:  42.21°N, 86.17°W
Report Text: KLWA 261835Z AUTO 19003KT 10SM CLR M04/M14 A2991 RMK AO2 T10401142
Loading
Personal Weather Stations






























Interactive Weather Map New forecast layout! Learn more

10-Day Weather Forecast

Advertisements
Track Severe Weather on mobile